createdAt,value
2019-04-06T00:01:27.775Z,31.23
2019-04-06T00:03:56.173Z,30.87
2019-04-06T00:06:24.551Z,30.93
2019-04-06T00:08:52.935Z,32.13
2019-04-06T00:11:21.319Z,30.73
2019-04-06T00:13:49.708Z,30.77
2019-04-06T00:16:18.149Z,30.77
2019-04-06T00:18:46.540Z,30.73
2019-04-06T00:21:14.920Z,30.80
2019-04-06T00:23:43.303Z,31.53
2019-04-06T00:26:11.697Z,30.53
2019-04-06T00:28:40.070Z,31.17
2019-04-06T00:31:13.053Z,31.33
2019-04-06T00:33:41.499Z,30.77
2019-04-06T00:36:09.875Z,32.57
2019-04-06T00:38:38.272Z,32.60
2019-04-06T00:41:06.648Z,32.70
2019-04-06T00:43:35.036Z,32.47
2019-04-06T00:46:03.489Z,31.93
2019-04-06T00:48:31.895Z,31.43
2019-04-06T00:51:00.275Z,31.97
2019-04-06T00:53:28.667Z,32.93
2019-04-06T00:55:57.111Z,31.03
2019-04-06T00:58:25.568Z,32.43
2019-04-06T01:00:54.027Z,32.93
2019-04-06T01:03:22.427Z,30.63
2019-04-06T01:05:50.815Z,31.20
2019-04-06T01:08:19.195Z,32.57
2019-04-06T01:10:47.576Z,33.97
2019-04-06T01:13:15.963Z,38.73
2019-04-06T01:15:44.418Z,37.57
2019-04-06T01:18:12.812Z,36.30
2019-04-06T01:20:41.197Z,35.83
2019-04-06T01:23:09.599Z,33.73
2019-04-06T01:25:37.980Z,33.07
2019-04-06T01:28:06.371Z,33.30
2019-04-06T01:30:34.769Z,32.37
2019-04-06T01:33:03.136Z,34.23
2019-04-06T01:35:31.531Z,35.40
2019-04-06T01:37:59.900Z,35.20
2019-04-06T01:40:28.283Z,34.33
2019-04-06T01:42:56.717Z,33.03
2019-04-06T01:45:25.091Z,33.10
2019-04-06T01:47:53.844Z,33.37
2019-04-06T01:50:22.241Z,35.30
2019-04-06T01:52:50.615Z,33.10
2019-04-06T01:55:19.012Z,34.20
2019-04-06T01:57:47.404Z,32.00
2019-04-06T02:00:15.985Z,33.13
2019-04-06T02:02:46.033Z,32.67
2019-04-06T02:05:14.479Z,33.83
2019-04-06T02:07:42.859Z,31.83
2019-04-06T02:10:11.888Z,33.27
2019-04-06T02:12:40.267Z,30.57
2019-04-06T02:15:08.796Z,32.13
2019-04-06T02:17:37.413Z,31.73
2019-04-06T02:20:06.563Z,33.00
2019-04-06T02:22:34.941Z,30.83
2019-04-06T02:25:03.599Z,34.93
2019-04-06T02:27:31.983Z,32.17
2019-04-06T02:30:18.583Z,31.17
2019-04-06T02:33:05.102Z,33.80
2019-04-06T02:35:44.043Z,33.17
2019-04-06T02:38:14.080Z,32.33
2019-04-06T02:41:03.771Z,33.27
2019-04-06T02:43:34.069Z,31.13
2019-04-06T02:46:02.528Z,33.03
2019-04-06T02:48:30.925Z,33.20
2019-04-06T02:50:59.309Z,31.57
2019-04-06T02:53:27.761Z,32.40
2019-04-06T02:55:56.166Z,32.90
2019-04-06T02:58:24.934Z,32.47
2019-04-06T03:00:53.517Z,34.73
2019-04-06T03:03:21.905Z,34.23
2019-04-06T03:05:50.299Z,31.50
2019-04-06T03:08:18.678Z,33.23
2019-04-06T03:10:47.077Z,31.37
2019-04-06T03:13:15.744Z,34.37
2019-04-06T03:15:44.204Z,34.87
2019-04-06T03:18:12.584Z,34.27
2019-04-06T03:20:40.980Z,30.43
2019-04-06T03:23:09.607Z,29.40
2019-04-06T03:25:38.048Z,31.40
2019-04-06T03:28:06.533Z,31.53
2019-04-06T03:30:34.920Z,32.40
2019-04-06T03:33:03.699Z,34.80
2019-04-06T03:35:32.276Z,33.33
2019-04-06T03:38:00.723Z,36.53
2019-04-06T03:40:29.127Z,35.73
2019-04-06T03:42:57.500Z,37.27
2019-04-06T03:45:25.891Z,38.03
2019-04-06T03:47:54.759Z,36.67
2019-04-06T03:50:23.273Z,38.43
2019-04-06T03:52:51.913Z,38.80
2019-04-06T03:55:20.302Z,37.13
2019-04-06T03:57:48.694Z,36.13
2019-04-06T04:00:17.320Z,38.47
2019-04-06T04:02:45.704Z,40.13
2019-04-06T04:05:14.100Z,40.43
2019-04-06T04:07:42.487Z,38.63
2019-04-06T04:10:14.794Z,40.97
2019-04-06T04:12:43.204Z,37.90
2019-04-06T04:15:11.743Z,37.90
2019-04-06T04:17:40.120Z,40.00
2019-04-06T04:20:08.727Z,37.33
2019-04-06T04:22:37.123Z,36.30
2019-04-06T04:25:06.243Z,37.63
2019-04-06T04:27:34.636Z,38.17
2019-04-06T04:30:03.700Z,37.97
2019-04-06T04:32:32.176Z,36.60
2019-04-06T04:35:00.797Z,38.30
2019-04-06T04:37:29.311Z,39.17
2019-04-06T04:39:57.887Z,39.00
2019-04-06T04:42:26.264Z,38.73
2019-04-06T04:44:54.804Z,38.13
2019-04-06T04:47:23.219Z,35.03
2019-04-06T04:49:51.600Z,34.93
2019-04-06T04:52:19.988Z,34.83
2019-04-06T04:54:48.365Z,33.77
2019-04-06T04:57:16.767Z,35.13
2019-04-06T04:59:45.322Z,34.03
2019-04-06T05:02:13.746Z,34.23
2019-04-06T05:04:42.179Z,33.77
2019-04-06T05:07:10.572Z,33.90
2019-04-06T05:09:39.015Z,34.23
2019-04-06T05:12:07.404Z,34.23
2019-04-06T05:15:01.180Z,33.93
2019-04-06T05:17:29.838Z,32.80
2019-04-06T05:19:58.352Z,33.50
2019-04-06T05:22:26.906Z,35.83
2019-04-06T05:24:55.276Z,32.73
2019-04-06T05:27:23.710Z,31.13
2019-04-06T05:29:52.118Z,30.47
2019-04-06T05:32:20.507Z,32.87
2019-04-06T05:34:48.891Z,32.27
2019-04-06T05:37:17.281Z,31.87
2019-04-06T05:39:45.672Z,29.87
2019-04-06T05:42:14.056Z,30.87
2019-04-06T05:44:42.440Z,31.73
2019-04-06T05:47:10.885Z,31.70
2019-04-06T05:49:39.271Z,29.73
2019-04-06T05:52:07.655Z,28.73
2019-04-06T05:54:36.035Z,29.77
2019-04-06T05:57:04.670Z,31.77
2019-04-06T05:59:33.062Z,28.70
2019-04-06T06:02:01.477Z,30.63
2019-04-06T06:04:30.008Z,30.53
2019-04-06T06:06:58.403Z,27.20
2019-04-06T06:09:26.790Z,28.03
2019-04-06T06:11:55.924Z,29.67
2019-04-06T06:14:24.444Z,26.60
2019-04-06T06:16:52.839Z,26.10
2019-04-06T06:19:21.227Z,26.23
2019-04-06T06:21:49.653Z,26.27
2019-04-06T06:24:18.073Z,27.07
2019-04-06T06:26:46.632Z,23.73
2019-04-06T06:29:15.048Z,26.43
2019-04-06T06:31:43.427Z,25.67
2019-04-06T06:34:11.818Z,25.40
2019-04-06T06:36:40.190Z,23.83
2019-04-06T06:39:09.003Z,23.40
2019-04-06T06:41:37.489Z,25.53
2019-04-06T06:44:05.858Z,23.43
2019-04-06T06:46:34.391Z,24.60
2019-04-06T06:49:02.801Z,24.70
2019-04-06T06:51:31.192Z,24.63
2019-04-06T06:53:59.603Z,23.63
2019-04-06T06:56:27.976Z,23.63
2019-04-06T06:58:56.355Z,22.60
2019-04-06T07:01:24.747Z,22.87
2019-04-06T07:03:53.395Z,21.30
2019-04-06T07:06:21.797Z,22.53
2019-04-06T07:08:50.358Z,21.80
2019-04-06T07:11:18.748Z,21.80
2019-04-06T07:13:47.205Z,19.10
2019-04-06T07:16:15.599Z,21.20
2019-04-06T07:18:43.988Z,20.63
2019-04-06T07:21:12.383Z,20.00
2019-04-06T07:23:40.818Z,20.70
2019-04-06T07:26:09.240Z,20.13
2019-04-06T07:28:39.161Z,21.23
2019-04-06T07:31:07.904Z,21.07
2019-04-06T07:33:36.288Z,20.47
2019-04-06T07:36:04.811Z,20.77
2019-04-06T07:38:33.211Z,20.97
2019-04-06T07:41:01.613Z,19.83
2019-04-06T07:43:30.102Z,21.40
2019-04-06T07:45:58.528Z,19.97
2019-04-06T07:48:26.923Z,18.90
2019-04-06T07:50:55.316Z,19.40
2019-04-06T07:53:23.708Z,19.60
2019-04-06T07:55:52.087Z,20.33
2019-04-06T07:58:20.481Z,21.67
2019-04-06T08:00:48.876Z,20.63
2019-04-06T08:03:17.255Z,21.53
2019-04-06T08:05:45.639Z,23.57
2019-04-06T08:08:14.031Z,32.97
2019-04-06T08:10:42.651Z,20.13
2019-04-06T08:13:11.082Z,19.87
2019-04-06T08:15:39.472Z,17.17
2019-04-06T08:18:07.876Z,19.50
2019-04-06T08:20:36.265Z,18.13
2019-04-06T08:23:04.657Z,18.73
2019-04-06T08:25:33.039Z,17.70
2019-04-06T08:28:01.446Z,19.13
2019-04-06T08:30:29.820Z,18.17
2019-04-06T08:32:58.252Z,17.60
2019-04-06T08:35:26.924Z,17.70
2019-04-06T08:37:55.312Z,17.30
2019-04-06T08:40:23.783Z,17.30
2019-04-06T08:42:52.172Z,16.97
2019-04-06T08:45:20.540Z,16.47
2019-04-06T08:47:48.944Z,16.67
2019-04-06T08:50:17.398Z,15.40
2019-04-06T08:52:45.779Z,15.97
2019-04-06T08:55:14.188Z,13.43
2019-04-06T08:57:42.567Z,13.03
2019-04-06T09:00:11.251Z,14.13
2019-04-06T09:02:39.764Z,14.03
2019-04-06T09:05:09.060Z,12.33
2019-04-06T09:07:37.511Z,11.83
2019-04-06T09:10:07.043Z,13.00
2019-04-06T09:12:35.427Z,11.60
2019-04-06T09:15:05.851Z,11.70
2019-04-06T09:17:34.248Z,12.50
2019-04-06T09:20:02.779Z,12.67
2019-04-06T09:22:31.162Z,13.50
2019-04-06T09:24:59.877Z,15.40
2019-04-06T09:27:28.513Z,14.87
2019-04-06T09:29:57.020Z,14.83
2019-04-06T09:32:25.416Z,14.33
2019-04-06T09:34:53.866Z,15.97
2019-04-06T09:37:22.571Z,16.47
2019-04-06T09:39:50.968Z,16.23
2019-04-06T09:42:19.471Z,17.17
2019-04-06T09:44:55.043Z,17.00
2019-04-06T09:47:25.067Z,15.70
2019-04-06T09:50:04.358Z,16.27
2019-04-06T09:52:49.666Z,16.30
2019-04-06T09:55:19.700Z,17.90
2019-04-06T09:57:55.554Z,17.13
2019-04-06T10:00:41.811Z,17.47
2019-04-06T10:03:11.836Z,17.23
2019-04-06T10:05:54.127Z,16.43
2019-04-06T10:08:26.831Z,17.77
2019-04-06T10:11:09.015Z,16.10
2019-04-06T10:13:41.737Z,15.47
2019-04-06T10:16:14.650Z,18.20
2019-04-06T10:18:53.660Z,18.30
2019-04-06T10:21:23.712Z,17.17
2019-04-06T10:24:02.962Z,17.30
2019-04-06T10:26:33.349Z,18.73
2019-04-06T10:29:19.915Z,18.33
2019-04-06T10:32:02.283Z,18.50
2019-04-06T10:34:50.725Z,18.23
2019-04-06T10:37:26.785Z,18.37
2019-04-06T10:40:13.233Z,19.53
2019-04-06T10:42:43.279Z,20.73
2019-04-06T10:45:28.330Z,19.70
2019-04-06T10:48:01.258Z,19.60
2019-04-06T10:50:43.565Z,19.60
2019-04-06T10:53:29.739Z,20.37
2019-04-06T10:56:02.813Z,20.60
2019-04-06T10:58:41.568Z,22.03
2019-04-06T11:01:28.263Z,19.77
2019-04-06T11:04:00.993Z,19.53
2019-04-06T11:06:43.015Z,20.83
2019-04-06T11:09:18.995Z,21.03
2019-04-06T11:11:58.721Z,19.90
2019-04-06T11:14:28.957Z,21.03
2019-04-06T11:16:58.945Z,20.73
2019-04-06T11:19:34.922Z,20.83
2019-04-06T11:22:05.008Z,21.33
2019-04-06T11:24:51.510Z,21.57
2019-04-06T11:27:34.011Z,19.97
2019-04-06T11:30:13.472Z,20.53
2019-04-06T11:32:55.332Z,21.03
2019-04-06T11:35:25.374Z,22.43
2019-04-06T11:37:58.383Z,21.70
2019-04-06T11:40:34.861Z,21.67
2019-04-06T11:43:21.255Z,21.00
2019-04-06T11:45:51.292Z,22.33
2019-04-06T11:48:26.811Z,21.90
2019-04-06T11:51:13.335Z,22.10
2019-04-06T11:54:00.075Z,21.80
2019-04-06T11:56:36.456Z,22.83
2019-04-06T11:59:12.498Z,22.37
2019-04-06T12:01:48.263Z,20.77
2019-04-06T12:04:30.393Z,23.40
2019-04-06T12:07:00.927Z,20.20
2019-04-06T12:09:31.843Z,21.00
2019-04-06T12:12:10.684Z,22.53
2019-04-06T12:14:40.748Z,22.20
2019-04-06T12:17:23.177Z,22.70
2019-04-06T12:19:53.316Z,22.83
2019-04-06T12:22:29.287Z,21.20
2019-04-06T12:25:05.507Z,21.00
2019-04-06T12:27:35.556Z,21.73
2019-04-06T12:30:23.363Z,23.77
2019-04-06T12:33:02.336Z,22.80
2019-04-06T12:35:35.343Z,36.57
2019-04-06T12:38:25.409Z,21.77
2019-04-06T12:41:07.596Z,23.30
2019-04-06T12:43:49.737Z,22.47
2019-04-06T12:46:22.174Z,22.87
2019-04-06T12:49:08.403Z,22.67
2019-04-06T12:51:54.997Z,21.60
2019-04-06T12:54:25.116Z,26.03
2019-04-06T12:56:58.200Z,29.10
2019-04-06T12:59:37.994Z,21.85
2019-04-06T13:02:16.856Z,22.02
2019-04-06T13:04:46.893Z,22.27
2019-04-06T13:07:33.216Z,21.33
2019-04-06T13:10:21.965Z,22.25
2019-04-06T13:13:04.439Z,22.02
2019-04-06T13:15:37.326Z,22.17
2019-04-06T13:18:24.256Z,21.12
2019-04-06T13:21:10.733Z,21.70
2019-04-06T13:23:52.905Z,20.08
2019-04-06T13:26:37.698Z,20.50
2019-04-06T13:29:16.561Z,19.20
2019-04-06T13:31:49.698Z,19.12
2019-04-06T13:34:28.783Z,18.90
2019-04-06T13:37:04.560Z,18.87
2019-04-06T13:39:40.846Z,19.48
2019-04-06T13:42:11.126Z,19.80
2019-04-06T13:44:41.325Z,19.40
2019-04-06T13:47:27.024Z,20.40
2019-04-06T13:49:59.848Z,21.17
2019-04-06T13:52:29.880Z,21.25
2019-04-06T13:55:05.620Z,20.82
2019-04-06T13:57:44.465Z,20.43
2019-04-06T14:00:27.140Z,21.37
2019-04-06T14:03:13.816Z,21.27
2019-04-06T14:05:43.835Z,20.50
2019-04-06T14:08:30.504Z,19.98
2019-04-06T14:11:17.552Z,19.35
2019-04-06T14:13:59.627Z,18.77
2019-04-06T14:16:41.288Z,18.47
2019-04-06T14:19:27.456Z,17.90
2019-04-06T14:22:12.760Z,18.20
2019-04-06T14:24:46.134Z,18.07
2019-04-06T14:27:16.242Z,18.90
2019-04-06T14:29:49.067Z,18.33
2019-04-06T14:32:35.302Z,18.00
2019-04-06T14:35:07.067Z,16.73
2019-04-06T14:37:53.603Z,19.10
2019-04-06T14:40:23.663Z,19.20
2019-04-06T14:43:09.902Z,19.50
2019-04-06T14:45:43.345Z,18.17
2019-04-06T14:48:19.679Z,19.37
2019-04-06T14:51:06.259Z,19.40
2019-04-06T14:53:36.309Z,19.93
2019-04-06T14:56:18.924Z,19.53
2019-04-06T14:58:51.705Z,20.20
2019-04-06T15:01:38.362Z,19.53
2019-04-06T15:04:11.684Z,18.80
2019-04-06T15:07:09.444Z,19.60
2019-04-06T15:09:31.584Z,18.67
2019-04-06T15:12:04.312Z,19.50
2019-04-06T15:14:37.223Z,19.57
2019-04-06T15:17:22.358Z,19.40
2019-04-06T15:20:08.928Z,20.03
2019-04-06T15:22:39.001Z,19.80
2019-04-06T15:25:15.130Z,18.83
2019-04-06T15:27:48.093Z,19.57
2019-04-06T15:30:30.221Z,18.93
2019-04-06T15:33:03.195Z,18.37
2019-04-06T15:35:36.230Z,18.93
2019-04-06T15:38:22.670Z,18.67
2019-04-06T15:40:52.725Z,19.37
2019-04-06T15:43:34.953Z,19.03
2019-04-06T15:46:10.797Z,18.17
2019-04-06T15:48:59.023Z,18.67
2019-04-06T15:51:41.448Z,18.97
2019-04-06T15:54:17.718Z,20.53
2019-04-06T15:56:47.803Z,18.40
2019-04-06T15:59:29.907Z,17.80
2019-04-06T16:02:02.402Z,18.37
2019-04-06T16:04:49.723Z,18.53
2019-04-06T16:07:36.201Z,18.60
2019-04-06T16:10:13.575Z,18.20
2019-04-06T16:12:43.611Z,20.00
2019-04-06T16:15:19.515Z,20.73
2019-04-06T16:18:06.191Z,20.27
2019-04-06T16:20:36.247Z,20.47
2019-04-06T16:23:07.635Z,20.83
2019-04-06T16:25:43.996Z,20.47
2019-04-06T16:28:17.292Z,19.10
2019-04-06T16:30:47.506Z,18.73
2019-04-06T16:33:33.805Z,20.03
2019-04-06T16:36:10.370Z,20.13
2019-04-06T16:38:52.711Z,19.97
2019-04-06T16:41:28.724Z,20.27
2019-04-06T16:44:01.560Z,20.13
2019-04-06T16:46:31.609Z,19.50
2019-04-06T16:49:01.998Z,24.27
2019-04-06T16:51:32.075Z,19.93
2019-04-06T16:54:02.107Z,22.00
2019-04-06T16:56:47.432Z,21.07
2019-04-06T16:59:35.472Z,23.10
2019-04-06T17:02:23.540Z,21.07
2019-04-06T17:05:02.552Z,21.83
2019-04-06T17:07:51.466Z,21.03
2019-04-06T17:10:38.149Z,22.93
2019-04-06T17:13:20.368Z,22.40
2019-04-06T17:15:50.409Z,21.80
2019-04-06T17:18:20.875Z,23.20
2019-04-06T17:21:07.295Z,21.23
2019-04-06T17:23:37.403Z,22.80
2019-04-06T17:26:07.431Z,24.37
2019-04-06T17:28:37.712Z,23.43
2019-04-06T17:31:20.065Z,24.50
2019-04-06T17:33:53.193Z,26.23
2019-04-06T17:36:26.197Z,25.37
2019-04-06T17:39:02.753Z,24.83
2019-04-06T17:41:48.803Z,22.83
2019-04-06T17:44:22.217Z,24.07
2019-04-06T17:46:58.536Z,23.73
2019-04-06T17:49:31.739Z,22.50
2019-04-06T17:52:01.910Z,24.00
2019-04-06T17:54:34.949Z,22.63
2019-04-06T17:57:04.974Z,24.47
2019-04-06T17:59:37.423Z,25.60
2019-04-06T18:02:10.256Z,25.27
2019-04-06T18:04:46.214Z,25.80
2019-04-06T18:07:32.314Z,25.03
2019-04-06T18:10:17.616Z,24.60
2019-04-06T18:12:50.900Z,24.70
2019-04-06T18:15:19.296Z,24.63
2019-04-06T18:17:48.168Z,25.63
2019-04-06T18:20:16.635Z,26.27
2019-04-06T18:22:45.033Z,26.73
2019-04-06T18:25:13.820Z,25.23
2019-04-06T18:27:42.263Z,25.17
2019-04-06T18:30:11.339Z,27.47
2019-04-06T18:32:44.896Z,25.30
2019-04-06T18:35:13.385Z,25.13
2019-04-06T18:37:43.419Z,26.23
2019-04-06T18:40:13.692Z,25.60
2019-04-06T18:42:42.073Z,24.93
2019-04-06T18:45:10.735Z,25.83
2019-04-06T18:47:39.097Z,24.83
2019-04-06T18:50:07.987Z,24.30
2019-04-06T18:52:36.626Z,22.33
2019-04-06T18:55:06.480Z,24.77
2019-04-06T18:57:34.999Z,24.20
2019-04-06T19:00:05.501Z,25.47
2019-04-06T19:02:33.886Z,26.63
2019-04-06T19:05:02.413Z,25.27
2019-04-06T19:07:30.840Z,26.70
2019-04-06T19:09:59.241Z,26.90
2019-04-06T19:12:27.627Z,26.23
2019-04-06T19:14:56.493Z,26.60
2019-04-06T19:17:24.987Z,27.63
2019-04-06T19:19:53.854Z,27.57
2019-04-06T19:22:22.807Z,28.37
2019-04-06T19:24:51.322Z,29.87
2019-04-06T19:27:19.713Z,29.67
2019-04-06T19:29:48.599Z,27.73
2019-04-06T19:32:17.067Z,28.63
2019-04-06T19:34:45.487Z,28.13
2019-04-06T19:37:13.848Z,29.93
2019-04-06T19:39:42.282Z,28.93
2019-04-06T19:42:10.944Z,28.90
2019-04-06T19:44:39.323Z,30.53
2019-04-06T19:47:07.703Z,33.23
2019-04-06T19:49:36.095Z,32.47
2019-04-06T19:52:04.487Z,36.03
2019-04-06T19:54:33.399Z,54.80
2019-04-06T19:57:01.823Z,35.80
2019-04-06T19:59:30.217Z,33.07
2019-04-06T20:01:58.700Z,32.07
2019-04-06T20:04:27.175Z,33.77
2019-04-06T20:06:55.898Z,33.40
2019-04-06T20:09:24.409Z,31.30
2019-04-06T20:12:04.355Z,29.57
2019-04-06T20:14:22.916Z,32.43
2019-04-06T20:16:51.341Z,33.27
2019-04-06T20:19:21.913Z,28.80
2019-04-06T20:21:49.951Z,31.27
2019-04-06T20:24:18.792Z,29.57
2019-04-06T20:26:47.518Z,30.73
2019-04-06T20:29:16.047Z,30.07
2019-04-06T20:31:44.688Z,30.30
2019-04-06T20:34:13.204Z,29.00
2019-04-06T20:36:41.945Z,27.70
2019-04-06T20:39:10.467Z,27.33
2019-04-06T20:41:38.862Z,26.47
2019-04-06T20:44:07.662Z,29.33
2019-04-06T20:46:36.120Z,30.50
2019-04-06T20:49:04.509Z,29.03
2019-04-06T20:51:33.301Z,29.17
2019-04-06T20:54:01.770Z,30.43
2019-04-06T20:56:30.168Z,27.97
2019-04-06T20:58:58.668Z,28.63
2019-04-06T21:01:27.662Z,31.07
2019-04-06T21:04:01.752Z,31.77
2019-04-06T21:06:26.291Z,30.43
2019-04-06T21:08:54.684Z,31.07
2019-04-06T21:11:23.298Z,29.93
2019-04-06T21:13:51.736Z,29.67
2019-04-06T21:16:20.575Z,30.87
2019-04-06T21:18:49.114Z,31.20
2019-04-06T21:21:17.673Z,31.73
2019-04-06T21:23:46.304Z,30.23
2019-04-06T21:26:15.203Z,31.93
2019-04-06T21:28:43.587Z,30.20
2019-04-06T21:31:12.155Z,29.73
2019-04-06T21:33:41.068Z,31.03
2019-04-06T21:36:09.537Z,30.70
2019-04-06T21:38:37.944Z,28.67
2019-04-06T21:41:06.961Z,29.70
2019-04-06T21:43:35.446Z,32.00
2019-04-06T21:46:03.954Z,31.07
2019-04-06T21:48:32.442Z,30.90
2019-04-06T21:51:00.816Z,30.47
2019-04-06T21:53:29.217Z,31.73
2019-04-06T21:56:03.237Z,29.20
2019-04-06T21:58:27.707Z,30.30
2019-04-06T22:00:58.007Z,31.10
2019-04-06T22:03:26.826Z,30.50
2019-04-06T22:05:55.815Z,30.93
2019-04-06T22:08:24.899Z,31.93
2019-04-06T22:10:53.949Z,32.27
2019-04-06T22:13:22.452Z,30.30
2019-04-06T22:15:50.845Z,29.67
2019-04-06T22:18:19.355Z,27.43
2019-04-06T22:20:47.703Z,28.93
2019-04-06T22:23:16.076Z,30.77
2019-04-06T22:25:44.870Z,30.07
2019-04-06T22:28:13.328Z,32.63
2019-04-06T22:30:41.775Z,33.23
2019-04-06T22:33:10.176Z,35.77
2019-04-06T22:35:38.962Z,35.60
2019-04-06T22:38:08.021Z,35.83
2019-04-06T22:40:37.000Z,34.90
2019-04-06T22:43:05.432Z,35.33
2019-04-06T22:45:34.686Z,35.43
2019-04-06T22:48:03.546Z,34.43
2019-04-06T22:50:32.631Z,35.43
2019-04-06T22:53:01.184Z,37.03
2019-04-06T22:55:29.819Z,37.00
2019-04-06T22:57:58.220Z,38.00
2019-04-06T23:00:31.451Z,37.90
2019-04-06T23:03:14.689Z,39.50
2019-04-06T23:06:01.279Z,39.70
2019-04-06T23:08:29.719Z,41.20
2019-04-06T23:10:58.130Z,41.20
2019-04-06T23:13:26.898Z,41.40
2019-04-06T23:15:55.423Z,41.70
2019-04-06T23:18:23.804Z,42.17
2019-04-06T23:20:52.853Z,41.27
2019-04-06T23:23:21.367Z,38.77
2019-04-06T23:25:49.751Z,41.27
2019-04-06T23:28:18.163Z,40.40
2019-04-06T23:30:46.598Z,37.83
2019-04-06T23:33:14.978Z,37.27
2019-04-06T23:35:43.364Z,38.27
2019-04-06T23:38:12.293Z,38.47
2019-04-06T23:40:40.797Z,40.73
2019-04-06T23:43:09.675Z,40.57
2019-04-06T23:45:38.145Z,41.83
2019-04-06T23:48:25.903Z,41.33
2019-04-06T23:50:54.333Z,39.70
2019-04-06T23:53:23.128Z,38.37
2019-04-06T23:55:51.825Z,42.07
2019-04-06T23:58:20.212Z,38.83
